sensor_id;sensor_type;location;lat;lon;timestamp;P1;durP1;ratioP1;P2;durP2;ratioP2
44816;SDS011;30529;53.570;9.964;2023-06-05T00:01:24;3.97;;;2.67;;
44816;SDS011;30529;53.570;9.964;2023-06-05T00:03:49;6.83;;;3.33;;
44816;SDS011;30529;53.570;9.964;2023-06-05T00:06:15;5.47;;;3.27;;
44816;SDS011;30529;53.570;9.964;2023-06-05T00:08:41;4.43;;;3.07;;
44816;SDS011;30529;53.570;9.964;2023-06-05T00:11:07;5.00;;;2.80;;
44816;SDS011;30529;53.570;9.964;2023-06-05T00:13:33;6.67;;;2.80;;
44816;SDS011;30529;53.570;9.964;2023-06-05T00:15:59;5.53;;;3.00;;
44816;SDS011;30529;53.570;9.964;2023-06-05T00:18:28;8.83;;;2.40;;
44816;SDS011;30529;53.570;9.964;2023-06-05T00:20:55;5.03;;;2.67;;
44816;SDS011;30529;53.570;9.964;2023-06-05T00:23:21;5.07;;;2.30;;
44816;SDS011;30529;53.570;9.964;2023-06-05T00:25:47;5.23;;;2.83;;
44816;SDS011;30529;53.570;9.964;2023-06-05T00:28:13;5.63;;;2.73;;
44816;SDS011;30529;53.570;9.964;2023-06-05T00:30:38;7.33;;;2.87;;
44816;SDS011;30529;53.570;9.964;2023-06-05T00:33:04;6.63;;;3.00;;
44816;SDS011;30529;53.570;9.964;2023-06-05T00:35:30;5.80;;;2.80;;
44816;SDS011;30529;53.570;9.964;2023-06-05T00:37:56;4.53;;;2.63;;
44816;SDS011;30529;53.570;9.964;2023-06-05T00:40:23;7.57;;;3.07;;
44816;SDS011;30529;53.570;9.964;2023-06-05T00:42:49;7.03;;;3.20;;
44816;SDS011;30529;53.570;9.964;2023-06-05T00:45:15;5.60;;;3.33;;
44816;SDS011;30529;53.570;9.964;2023-06-05T00:47:41;6.87;;;3.07;;
44816;SDS011;30529;53.570;9.964;2023-06-05T00:50:07;7.93;;;3.67;;
44816;SDS011;30529;53.570;9.964;2023-06-05T00:52:37;7.17;;;2.87;;
44816;SDS011;30529;53.570;9.964;2023-06-05T00:55:03;6.20;;;3.17;;
44816;SDS011;30529;53.570;9.964;2023-06-05T00:57:29;4.80;;;2.97;;
44816;SDS011;30529;53.570;9.964;2023-06-05T00:59:59;4.03;;;2.80;;
44816;SDS011;30529;53.570;9.964;2023-06-05T01:02:24;9.13;;;3.50;;
44816;SDS011;30529;53.570;9.964;2023-06-05T01:04:52;7.00;;;3.10;;
44816;SDS011;30529;53.570;9.964;2023-06-05T01:07:18;6.60;;;3.10;;
44816;SDS011;30529;53.570;9.964;2023-06-05T01:09:46;6.33;;;3.50;;
44816;SDS011;30529;53.570;9.964;2023-06-05T01:15:02;9.73;;;3.40;;
44816;SDS011;30529;53.570;9.964;2023-06-05T01:17:28;4.83;;;2.93;;
44816;SDS011;30529;53.570;9.964;2023-06-05T01:19:57;8.40;;;3.10;;
44816;SDS011;30529;53.570;9.964;2023-06-05T01:22:33;9.20;;;3.50;;
44816;SDS011;30529;53.570;9.964;2023-06-05T01:25:00;4.03;;;3.00;;
44816;SDS011;30529;53.570;9.964;2023-06-05T01:32:41;10.70;;;4.40;;
44816;SDS011;30529;53.570;9.964;2023-06-05T01:35:10;5.93;;;3.23;;
44816;SDS011;30529;53.570;9.964;2023-06-05T01:37:42;5.03;;;3.13;;
44816;SDS011;30529;53.570;9.964;2023-06-05T01:40:14;7.43;;;3.37;;
44816;SDS011;30529;53.570;9.964;2023-06-05T01:42:42;5.47;;;3.63;;
44816;SDS011;30529;53.570;9.964;2023-06-05T01:45:09;7.13;;;3.30;;
44816;SDS011;30529;53.570;9.964;2023-06-05T01:47:37;5.63;;;3.00;;
44816;SDS011;30529;53.570;9.964;2023-06-05T01:50:07;4.93;;;3.13;;
44816;SDS011;30529;53.570;9.964;2023-06-05T01:52:34;5.20;;;3.00;;
44816;SDS011;30529;53.570;9.964;2023-06-05T01:55:01;5.83;;;3.37;;
44816;SDS011;30529;53.570;9.964;2023-06-05T01:57:30;6.53;;;3.33;;
44816;SDS011;30529;53.570;9.964;2023-06-05T01:59:59;8.50;;;3.57;;
44816;SDS011;30529;53.570;9.964;2023-06-05T02:02:32;4.77;;;2.93;;
44816;SDS011;30529;53.570;9.964;2023-06-05T02:04:58;4.60;;;3.57;;
44816;SDS011;30529;53.570;9.964;2023-06-05T02:07:24;7.30;;;3.60;;
44816;SDS011;30529;53.570;9.964;2023-06-05T02:09:54;9.20;;;3.77;;
44816;SDS011;30529;53.570;9.964;2023-06-05T02:12:20;4.33;;;3.27;;
44816;SDS011;30529;53.570;9.964;2023-06-05T02:14:51;6.07;;;3.10;;
44816;SDS011;30529;53.570;9.964;2023-06-05T02:17:17;5.93;;;3.47;;
44816;SDS011;30529;53.570;9.964;2023-06-05T02:19:43;5.80;;;3.67;;
44816;SDS011;30529;53.570;9.964;2023-06-05T02:22:09;5.17;;;3.33;;
44816;SDS011;30529;53.570;9.964;2023-06-05T02:24:35;6.90;;;3.40;;
44816;SDS011;30529;53.570;9.964;2023-06-05T02:27:01;6.70;;;3.70;;
44816;SDS011;30529;53.570;9.964;2023-06-05T02:29:28;8.43;;;3.77;;
44816;SDS011;30529;53.570;9.964;2023-06-05T02:31:53;6.40;;;3.40;;
44816;SDS011;30529;53.570;9.964;2023-06-05T02:34:19;6.63;;;3.23;;
44816;SDS011;30529;53.570;9.964;2023-06-05T02:36:45;8.63;;;3.97;;
44816;SDS011;30529;53.570;9.964;2023-06-05T02:39:11;6.27;;;3.80;;
44816;SDS011;30529;53.570;9.964;2023-06-05T02:41:38;6.00;;;4.00;;
44816;SDS011;30529;53.570;9.964;2023-06-05T02:44:04;8.87;;;4.30;;
44816;SDS011;30529;53.570;9.964;2023-06-05T02:46:30;10.03;;;3.60;;
44816;SDS011;30529;53.570;9.964;2023-06-05T02:48:55;7.17;;;3.83;;
44816;SDS011;30529;53.570;9.964;2023-06-05T02:51:21;8.87;;;4.33;;
44816;SDS011;30529;53.570;9.964;2023-06-05T02:53:47;9.03;;;4.30;;
44816;SDS011;30529;53.570;9.964;2023-06-05T02:56:13;7.93;;;3.90;;
44816;SDS011;30529;53.570;9.964;2023-06-05T02:58:41;8.43;;;4.53;;
44816;SDS011;30529;53.570;9.964;2023-06-05T03:01:09;8.40;;;4.20;;
44816;SDS011;30529;53.570;9.964;2023-06-05T03:03:35;7.80;;;4.40;;
44816;SDS011;30529;53.570;9.964;2023-06-05T03:06:02;7.30;;;4.30;;
44816;SDS011;30529;53.570;9.964;2023-06-05T03:08:35;8.83;;;4.70;;
44816;SDS011;30529;53.570;9.964;2023-06-05T03:11:02;6.70;;;4.20;;
44816;SDS011;30529;53.570;9.964;2023-06-05T03:13:29;7.70;;;5.47;;
44816;SDS011;30529;53.570;9.964;2023-06-05T03:15:56;8.33;;;4.53;;
44816;SDS011;30529;53.570;9.964;2023-06-05T03:18:25;7.90;;;4.70;;
44816;SDS011;30529;53.570;9.964;2023-06-05T03:20:55;8.90;;;5.40;;
44816;SDS011;30529;53.570;9.964;2023-06-05T03:23:22;8.37;;;4.27;;
44816;SDS011;30529;53.570;9.964;2023-06-05T03:25:49;8.47;;;4.30;;
44816;SDS011;30529;53.570;9.964;2023-06-05T03:28:16;7.20;;;4.63;;
44816;SDS011;30529;53.570;9.964;2023-06-05T03:30:43;4.83;;;3.80;;
44816;SDS011;30529;53.570;9.964;2023-06-05T03:33:10;8.50;;;4.93;;
44816;SDS011;30529;53.570;9.964;2023-06-05T03:35:36;9.03;;;4.80;;
44816;SDS011;30529;53.570;9.964;2023-06-05T03:38:02;6.80;;;4.77;;
44816;SDS011;30529;53.570;9.964;2023-06-05T03:40:28;8.90;;;4.83;;
44816;SDS011;30529;53.570;9.964;2023-06-05T03:42:54;8.20;;;4.60;;
44816;SDS011;30529;53.570;9.964;2023-06-05T03:45:20;7.43;;;4.27;;
44816;SDS011;30529;53.570;9.964;2023-06-05T03:47:47;9.07;;;5.47;;
44816;SDS011;30529;53.570;9.964;2023-06-05T03:50:14;8.27;;;4.93;;
44816;SDS011;30529;53.570;9.964;2023-06-05T03:52:43;8.47;;;4.90;;
44816;SDS011;30529;53.570;9.964;2023-06-05T03:55:09;7.27;;;4.47;;
44816;SDS011;30529;53.570;9.964;2023-06-05T03:57:38;8.80;;;4.90;;
44816;SDS011;30529;53.570;9.964;2023-06-05T04:00:05;8.80;;;5.00;;
44816;SDS011;30529;53.570;9.964;2023-06-05T04:02:35;7.73;;;5.47;;
44816;SDS011;30529;53.570;9.964;2023-06-05T04:05:02;5.80;;;4.70;;
44816;SDS011;30529;53.570;9.964;2023-06-05T04:07:29;12.87;;;5.93;;
44816;SDS011;30529;53.570;9.964;2023-06-05T04:09:55;7.33;;;5.17;;
44816;SDS011;30529;53.570;9.964;2023-06-05T04:12:21;9.93;;;5.53;;
44816;SDS011;30529;53.570;9.964;2023-06-05T04:14:47;10.50;;;5.23;;
44816;SDS011;30529;53.570;9.964;2023-06-05T04:17:13;8.93;;;5.20;;
44816;SDS011;30529;53.570;9.964;2023-06-05T04:19:40;9.80;;;5.83;;
44816;SDS011;30529;53.570;9.964;2023-06-05T04:22:06;9.07;;;6.33;;
44816;SDS011;30529;53.570;9.964;2023-06-05T04:24:32;11.43;;;5.97;;
44816;SDS011;30529;53.570;9.964;2023-06-05T04:26:58;10.60;;;4.83;;
44816;SDS011;30529;53.570;9.964;2023-06-05T04:29:26;9.37;;;5.30;;
44816;SDS011;30529;53.570;9.964;2023-06-05T04:31:52;7.57;;;4.80;;
44816;SDS011;30529;53.570;9.964;2023-06-05T04:34:19;9.10;;;5.30;;
44816;SDS011;30529;53.570;9.964;2023-06-05T04:36:45;8.87;;;5.60;;
44816;SDS011;30529;53.570;9.964;2023-06-05T04:39:15;6.50;;;4.90;;
44816;SDS011;30529;53.570;9.964;2023-06-05T04:41:42;11.70;;;5.50;;
44816;SDS011;30529;53.570;9.964;2023-06-05T04:44:13;9.43;;;5.57;;
44816;SDS011;30529;53.570;9.964;2023-06-05T04:46:42;7.87;;;5.27;;
44816;SDS011;30529;53.570;9.964;2023-06-05T04:49:14;9.93;;;5.57;;
44816;SDS011;30529;53.570;9.964;2023-06-05T04:51:41;6.57;;;5.37;;
44816;SDS011;30529;53.570;9.964;2023-06-05T04:54:09;9.37;;;5.37;;
44816;SDS011;30529;53.570;9.964;2023-06-05T04:56:35;8.37;;;5.97;;
44816;SDS011;30529;53.570;9.964;2023-06-05T04:59:04;10.83;;;6.00;;
44816;SDS011;30529;53.570;9.964;2023-06-05T05:01:31;10.73;;;5.63;;
44816;SDS011;30529;53.570;9.964;2023-06-05T05:03:57;7.27;;;5.50;;
44816;SDS011;30529;53.570;9.964;2023-06-05T05:06:24;11.37;;;6.10;;
44816;SDS011;30529;53.570;9.964;2023-06-05T05:08:51;10.77;;;5.83;;
44816;SDS011;30529;53.570;9.964;2023-06-05T05:11:17;11.87;;;6.03;;
44816;SDS011;30529;53.570;9.964;2023-06-05T05:13:43;13.90;;;8.97;;
44816;SDS011;30529;53.570;9.964;2023-06-05T05:16:09;11.87;;;6.37;;
44816;SDS011;30529;53.570;9.964;2023-06-05T05:18:37;11.83;;;6.50;;
44816;SDS011;30529;53.570;9.964;2023-06-05T05:21:05;10.77;;;6.53;;
44816;SDS011;30529;53.570;9.964;2023-06-05T05:23:32;9.27;;;6.47;;
44816;SDS011;30529;53.570;9.964;2023-06-05T05:26:02;9.43;;;5.97;;
44816;SDS011;30529;53.570;9.964;2023-06-05T05:28:29;12.57;;;6.50;;
44816;SDS011;30529;53.570;9.964;2023-06-05T05:30:55;9.03;;;6.20;;
44816;SDS011;30529;53.570;9.964;2023-06-05T05:33:24;10.03;;;5.90;;
44816;SDS011;30529;53.570;9.964;2023-06-05T05:35:50;9.57;;;6.10;;
44816;SDS011;30529;53.570;9.964;2023-06-05T05:38:16;15.20;;;6.50;;
44816;SDS011;30529;53.570;9.964;2023-06-05T05:40:42;8.70;;;6.60;;
44816;SDS011;30529;53.570;9.964;2023-06-05T05:43:07;9.33;;;6.33;;
44816;SDS011;30529;53.570;9.964;2023-06-05T05:45:33;9.40;;;7.13;;
44816;SDS011;30529;53.570;9.964;2023-06-05T05:48:02;10.67;;;6.60;;
44816;SDS011;30529;53.570;9.964;2023-06-05T05:50:27;11.77;;;6.70;;
44816;SDS011;30529;53.570;9.964;2023-06-05T05:52:53;7.97;;;5.83;;
44816;SDS011;30529;53.570;9.964;2023-06-05T05:55:20;8.80;;;6.87;;
44816;SDS011;30529;53.570;9.964;2023-06-05T05:57:46;12.97;;;7.40;;
44816;SDS011;30529;53.570;9.964;2023-06-05T06:03:04;11.63;;;7.00;;
44816;SDS011;30529;53.570;9.964;2023-06-05T06:05:32;11.37;;;7.20;;
44816;SDS011;30529;53.570;9.964;2023-06-05T06:07:59;13.70;;;6.70;;
44816;SDS011;30529;53.570;9.964;2023-06-05T06:10:24;10.90;;;6.60;;
44816;SDS011;30529;53.570;9.964;2023-06-05T06:12:52;11.37;;;6.47;;
44816;SDS011;30529;53.570;9.964;2023-06-05T06:15:18;9.33;;;6.30;;
44816;SDS011;30529;53.570;9.964;2023-06-05T06:17:44;11.27;;;6.53;;
44816;SDS011;30529;53.570;9.964;2023-06-05T06:20:10;12.63;;;6.87;;
44816;SDS011;30529;53.570;9.964;2023-06-05T06:22:38;12.27;;;7.10;;
44816;SDS011;30529;53.570;9.964;2023-06-05T06:25:08;10.90;;;6.80;;
44816;SDS011;30529;53.570;9.964;2023-06-05T06:27:38;10.57;;;6.17;;
44816;SDS011;30529;53.570;9.964;2023-06-05T06:30:04;11.63;;;6.33;;
44816;SDS011;30529;53.570;9.964;2023-06-05T06:32:30;9.03;;;5.77;;
44816;SDS011;30529;53.570;9.964;2023-06-05T06:34:56;10.40;;;5.70;;
44816;SDS011;30529;53.570;9.964;2023-06-05T06:37:23;9.90;;;4.80;;
44816;SDS011;30529;53.570;9.964;2023-06-05T06:39:49;7.87;;;4.53;;
44816;SDS011;30529;53.570;9.964;2023-06-05T06:42:15;8.40;;;4.53;;
44816;SDS011;30529;53.570;9.964;2023-06-05T06:44:41;7.90;;;4.90;;
44816;SDS011;30529;53.570;9.964;2023-06-05T06:47:08;8.40;;;5.27;;
44816;SDS011;30529;53.570;9.964;2023-06-05T06:49:34;9.47;;;4.63;;
44816;SDS011;30529;53.570;9.964;2023-06-05T06:52:01;10.20;;;5.13;;
44816;SDS011;30529;53.570;9.964;2023-06-05T06:54:27;7.00;;;4.40;;
44816;SDS011;30529;53.570;9.964;2023-06-05T06:56:56;6.77;;;4.13;;
44816;SDS011;30529;53.570;9.964;2023-06-05T06:59:23;10.10;;;4.90;;
44816;SDS011;30529;53.570;9.964;2023-06-05T07:02:08;7.63;;;3.83;;
44816;SDS011;30529;53.570;9.964;2023-06-05T07:04:37;9.20;;;4.30;;
44816;SDS011;30529;53.570;9.964;2023-06-05T07:07:04;6.93;;;4.43;;
44816;SDS011;30529;53.570;9.964;2023-06-05T07:09:30;10.10;;;4.10;;
44816;SDS011;30529;53.570;9.964;2023-06-05T07:11:56;7.03;;;4.33;;
44816;SDS011;30529;53.570;9.964;2023-06-05T07:14:22;6.77;;;4.57;;
44816;SDS011;30529;53.570;9.964;2023-06-05T07:16:48;10.60;;;4.30;;
44816;SDS011;30529;53.570;9.964;2023-06-05T07:19:17;10.07;;;3.97;;
44816;SDS011;30529;53.570;9.964;2023-06-05T07:21:43;5.90;;;3.50;;
44816;SDS011;30529;53.570;9.964;2023-06-05T07:24:09;5.13;;;3.27;;
44816;SDS011;30529;53.570;9.964;2023-06-05T07:26:35;7.90;;;3.90;;
44816;SDS011;30529;53.570;9.964;2023-06-05T07:29:01;6.93;;;3.40;;
44816;SDS011;30529;53.570;9.964;2023-06-05T07:31:27;6.10;;;3.57;;
44816;SDS011;30529;53.570;9.964;2023-06-05T07:33:54;11.03;;;3.63;;
44816;SDS011;30529;53.570;9.964;2023-06-05T07:36:20;5.57;;;3.67;;
44816;SDS011;30529;53.570;9.964;2023-06-05T07:38:47;7.73;;;3.67;;
44816;SDS011;30529;53.570;9.964;2023-06-05T07:41:15;6.33;;;3.37;;
44816;SDS011;30529;53.570;9.964;2023-06-05T07:43:41;5.43;;;3.33;;
44816;SDS011;30529;53.570;9.964;2023-06-05T07:46:07;5.63;;;2.97;;
44816;SDS011;30529;53.570;9.964;2023-06-05T07:48:35;6.37;;;3.30;;
44816;SDS011;30529;53.570;9.964;2023-06-05T07:51:01;4.90;;;3.13;;
44816;SDS011;30529;53.570;9.964;2023-06-05T07:53:27;9.13;;;2.93;;
44816;SDS011;30529;53.570;9.964;2023-06-05T07:55:53;5.20;;;3.03;;
44816;SDS011;30529;53.570;9.964;2023-06-05T07:58:19;7.23;;;3.10;;
44816;SDS011;30529;53.570;9.964;2023-06-05T08:00:46;5.50;;;3.07;;
44816;SDS011;30529;53.570;9.964;2023-06-05T08:03:16;5.37;;;2.97;;
44816;SDS011;30529;53.570;9.964;2023-06-05T08:05:46;5.10;;;2.90;;
44816;SDS011;30529;53.570;9.964;2023-06-05T08:08:12;9.57;;;3.20;;
44816;SDS011;30529;53.570;9.964;2023-06-05T08:10:38;7.30;;;2.90;;
44816;SDS011;30529;53.570;9.964;2023-06-05T08:13:05;6.53;;;2.67;;
44816;SDS011;30529;53.570;9.964;2023-06-05T08:15:32;4.13;;;2.33;;
44816;SDS011;30529;53.570;9.964;2023-06-05T08:17:58;6.47;;;3.00;;
44816;SDS011;30529;53.570;9.964;2023-06-05T08:20:23;6.53;;;2.87;;
44816;SDS011;30529;53.570;9.964;2023-06-05T08:22:50;3.83;;;2.33;;
44816;SDS011;30529;53.570;9.964;2023-06-05T08:25:16;3.60;;;2.40;;
44816;SDS011;30529;53.570;9.964;2023-06-05T08:27:41;4.53;;;2.60;;
44816;SDS011;30529;53.570;9.964;2023-06-05T08:30:07;6.90;;;2.53;;
44816;SDS011;30529;53.570;9.964;2023-06-05T08:32:34;5.07;;;2.70;;
44816;SDS011;30529;53.570;9.964;2023-06-05T08:35:00;3.60;;;2.40;;
44816;SDS011;30529;53.570;9.964;2023-06-05T08:37:26;4.70;;;2.53;;
44816;SDS011;30529;53.570;9.964;2023-06-05T08:39:54;4.23;;;2.60;;
44816;SDS011;30529;53.570;9.964;2023-06-05T08:42:25;7.83;;;4.67;;
44816;SDS011;30529;53.570;9.964;2023-06-05T08:44:54;5.50;;;2.33;;
44816;SDS011;30529;53.570;9.964;2023-06-05T08:47:20;4.80;;;2.47;;
44816;SDS011;30529;53.570;9.964;2023-06-05T08:49:52;6.97;;;2.63;;
44816;SDS011;30529;53.570;9.964;2023-06-05T08:52:21;6.47;;;2.50;;
44816;SDS011;30529;53.570;9.964;2023-06-05T08:54:48;6.63;;;2.67;;
44816;SDS011;30529;53.570;9.964;2023-06-05T08:57:15;4.53;;;2.33;;
44816;SDS011;30529;53.570;9.964;2023-06-05T08:59:41;6.47;;;3.00;;
44816;SDS011;30529;53.570;9.964;2023-06-05T09:02:11;3.77;;;2.37;;
44816;SDS011;30529;53.570;9.964;2023-06-05T09:04:38;5.93;;;2.37;;
44816;SDS011;30529;53.570;9.964;2023-06-05T09:07:04;5.27;;;2.60;;
44816;SDS011;30529;53.570;9.964;2023-06-05T09:09:35;3.43;;;2.00;;
44816;SDS011;30529;53.570;9.964;2023-06-05T09:12:02;4.77;;;2.13;;
44816;SDS011;30529;53.570;9.964;2023-06-05T09:14:28;8.30;;;2.43;;
44816;SDS011;30529;53.570;9.964;2023-06-05T09:16:56;4.17;;;2.20;;
44816;SDS011;30529;53.570;9.964;2023-06-05T09:19:23;6.50;;;2.50;;
44816;SDS011;30529;53.570;9.964;2023-06-05T09:21:51;7.60;;;2.50;;
44816;SDS011;30529;53.570;9.964;2023-06-05T09:24:19;5.20;;;2.07;;
44816;SDS011;30529;53.570;9.964;2023-06-05T09:26:59;4.03;;;2.00;;
44816;SDS011;30529;53.570;9.964;2023-06-05T09:29:28;12.33;;;2.93;;
44816;SDS011;30529;53.570;9.964;2023-06-05T09:31:56;7.50;;;2.20;;
44816;SDS011;30529;53.570;9.964;2023-06-05T09:34:24;4.47;;;2.43;;
44816;SDS011;30529;53.570;9.964;2023-06-05T09:36:58;3.40;;;2.30;;
44816;SDS011;30529;53.570;9.964;2023-06-05T09:39:26;6.10;;;2.63;;
44816;SDS011;30529;53.570;9.964;2023-06-05T09:41:54;4.43;;;2.20;;
44816;SDS011;30529;53.570;9.964;2023-06-05T09:44:21;3.23;;;1.90;;
44816;SDS011;30529;53.570;9.964;2023-06-05T09:46:57;5.33;;;2.33;;
44816;SDS011;30529;53.570;9.964;2023-06-05T09:49:31;5.67;;;2.30;;
44816;SDS011;30529;53.570;9.964;2023-06-05T09:52:18;6.13;;;2.37;;
44816;SDS011;30529;53.570;9.964;2023-06-05T09:54:45;5.40;;;2.30;;
44816;SDS011;30529;53.570;9.964;2023-06-05T09:57:12;8.47;;;2.87;;
44816;SDS011;30529;53.570;9.964;2023-06-05T09:59:49;7.87;;;2.23;;
44816;SDS011;30529;53.570;9.964;2023-06-05T10:02:17;4.90;;;3.80;;
44816;SDS011;30529;53.570;9.964;2023-06-05T10:04:46;4.77;;;2.17;;
44816;SDS011;30529;53.570;9.964;2023-06-05T10:07:15;4.40;;;2.30;;
44816;SDS011;30529;53.570;9.964;2023-06-05T10:09:42;3.23;;;2.03;;
44816;SDS011;30529;53.570;9.964;2023-06-05T10:12:09;5.17;;;2.10;;
44816;SDS011;30529;53.570;9.964;2023-06-05T10:14:35;3.83;;;2.53;;
44816;SDS011;30529;53.570;9.964;2023-06-05T10:17:02;3.63;;;2.00;;
44816;SDS011;30529;53.570;9.964;2023-06-05T10:19:30;7.07;;;2.53;;
44816;SDS011;30529;53.570;9.964;2023-06-05T10:21:56;3.50;;;2.20;;
44816;SDS011;30529;53.570;9.964;2023-06-05T10:24:23;5.10;;;2.63;;
44816;SDS011;30529;53.570;9.964;2023-06-05T10:35:42;3.23;;;2.43;;
44816;SDS011;30529;53.570;9.964;2023-06-05T10:38:22;4.87;;;2.20;;
44816;SDS011;30529;53.570;9.964;2023-06-05T10:40:54;4.90;;;3.03;;
44816;SDS011;30529;53.570;9.964;2023-06-05T10:43:25;4.90;;;2.57;;
44816;SDS011;30529;53.570;9.964;2023-06-05T10:45:51;5.20;;;2.40;;
44816;SDS011;30529;53.570;9.964;2023-06-05T10:48:18;6.17;;;2.37;;
44816;SDS011;30529;53.570;9.964;2023-06-05T10:50:44;7.40;;;2.10;;
44816;SDS011;30529;53.570;9.964;2023-06-05T10:54:11;7.17;;;2.10;;
44816;SDS011;30529;53.570;9.964;2023-06-05T10:56:47;5.70;;;2.30;;
44816;SDS011;30529;53.570;9.964;2023-06-05T10:59:16;4.73;;;2.40;;
44816;SDS011;30529;53.570;9.964;2023-06-05T11:01:42;3.70;;;2.13;;
44816;SDS011;30529;53.570;9.964;2023-06-05T11:04:08;8.50;;;2.57;;
44816;SDS011;30529;53.570;9.964;2023-06-05T11:06:35;4.13;;;2.37;;
44816;SDS011;30529;53.570;9.964;2023-06-05T11:09:06;8.50;;;2.67;;
44816;SDS011;30529;53.570;9.964;2023-06-05T11:14:42;5.70;;;3.00;;
44816;SDS011;30529;53.570;9.964;2023-06-05T11:19:59;2.87;;;2.13;;
44816;SDS011;30529;53.570;9.964;2023-06-05T11:22:26;2.97;;;1.90;;
44816;SDS011;30529;53.570;9.964;2023-06-05T11:27:41;7.40;;;2.10;;
44816;SDS011;30529;53.570;9.964;2023-06-05T11:30:12;2.90;;;2.27;;
44816;SDS011;30529;53.570;9.964;2023-06-05T11:32:39;4.87;;;2.83;;
44816;SDS011;30529;53.570;9.964;2023-06-05T11:35:05;4.67;;;2.00;;
44816;SDS011;30529;53.570;9.964;2023-06-05T11:37:34;2.57;;;1.53;;
44816;SDS011;30529;53.570;9.964;2023-06-05T11:40:03;3.70;;;2.10;;
44816;SDS011;30529;53.570;9.964;2023-06-05T11:42:34;3.43;;;1.97;;
44816;SDS011;30529;53.570;9.964;2023-06-05T11:45:13;5.23;;;2.13;;
44816;SDS011;30529;53.570;9.964;2023-06-05T11:47:40;2.63;;;1.80;;
44816;SDS011;30529;53.570;9.964;2023-06-05T11:50:07;3.87;;;2.10;;
44816;SDS011;30529;53.570;9.964;2023-06-05T11:52:37;3.97;;;1.83;;
44816;SDS011;30529;53.570;9.964;2023-06-05T11:55:11;4.43;;;2.00;;
44816;SDS011;30529;53.570;9.964;2023-06-05T11:57:43;4.17;;;2.03;;
44816;SDS011;30529;53.570;9.964;2023-06-05T12:00:10;4.50;;;2.20;;
44816;SDS011;30529;53.570;9.964;2023-06-05T12:02:39;6.13;;;2.73;;
44816;SDS011;30529;53.570;9.964;2023-06-05T12:05:08;2.47;;;1.50;;
44816;SDS011;30529;53.570;9.964;2023-06-05T12:07:34;5.33;;;2.27;;
44816;SDS011;30529;53.570;9.964;2023-06-05T12:10:05;6.63;;;2.27;;
44816;SDS011;30529;53.570;9.964;2023-06-05T12:12:33;3.47;;;1.77;;
44816;SDS011;30529;53.570;9.964;2023-06-05T12:15:18;6.17;;;2.53;;
44816;SDS011;30529;53.570;9.964;2023-06-05T12:20:16;5.10;;;2.17;;
44816;SDS011;30529;53.570;9.964;2023-06-05T12:22:43;3.37;;;2.00;;
44816;SDS011;30529;53.570;9.964;2023-06-05T12:25:19;6.43;;;1.87;;
44816;SDS011;30529;53.570;9.964;2023-06-05T12:27:46;3.93;;;1.80;;
44816;SDS011;30529;53.570;9.964;2023-06-05T12:30:14;4.43;;;2.20;;
44816;SDS011;30529;53.570;9.964;2023-06-05T12:32:45;6.90;;;2.97;;
44816;SDS011;30529;53.570;9.964;2023-06-05T12:35:23;4.67;;;2.60;;
44816;SDS011;30529;53.570;9.964;2023-06-05T12:37:58;9.27;;;2.10;;
44816;SDS011;30529;53.570;9.964;2023-06-05T12:40:25;4.30;;;2.00;;
44816;SDS011;30529;53.570;9.964;2023-06-05T12:42:51;4.50;;;1.77;;
44816;SDS011;30529;53.570;9.964;2023-06-05T12:45:17;2.60;;;1.60;;
44816;SDS011;30529;53.570;9.964;2023-06-05T12:47:43;4.53;;;2.23;;
44816;SDS011;30529;53.570;9.964;2023-06-05T12:50:10;6.73;;;2.00;;
44816;SDS011;30529;53.570;9.964;2023-06-05T12:52:38;4.30;;;2.00;;
44816;SDS011;30529;53.570;9.964;2023-06-05T12:55:04;4.17;;;1.90;;
44816;SDS011;30529;53.570;9.964;2023-06-05T12:57:31;2.93;;;1.87;;
44816;SDS011;30529;53.570;9.964;2023-06-05T12:59:57;3.33;;;1.97;;
44816;SDS011;30529;53.570;9.964;2023-06-05T13:02:24;2.23;;;1.67;;
44816;SDS011;30529;53.570;9.964;2023-06-05T13:04:50;4.00;;;2.07;;
44816;SDS011;30529;53.570;9.964;2023-06-05T13:07:16;4.17;;;2.00;;
44816;SDS011;30529;53.570;9.964;2023-06-05T13:09:42;6.57;;;2.47;;
44816;SDS011;30529;53.570;9.964;2023-06-05T13:12:08;5.30;;;2.00;;
44816;SDS011;30529;53.570;9.964;2023-06-05T13:14:34;9.47;;;2.33;;
44816;SDS011;30529;53.570;9.964;2023-06-05T13:17:00;6.07;;;1.80;;
44816;SDS011;30529;53.570;9.964;2023-06-05T13:19:26;3.80;;;1.63;;
44816;SDS011;30529;53.570;9.964;2023-06-05T13:21:52;2.03;;;1.70;;
44816;SDS011;30529;53.570;9.964;2023-06-05T13:24:19;5.27;;;2.00;;
44816;SDS011;30529;53.570;9.964;2023-06-05T13:26:45;5.27;;;1.90;;
44816;SDS011;30529;53.570;9.964;2023-06-05T13:29:13;7.80;;;2.20;;
44816;SDS011;30529;53.570;9.964;2023-06-05T13:31:40;8.33;;;2.40;;
44816;SDS011;30529;53.570;9.964;2023-06-05T13:34:06;2.83;;;1.60;;
44816;SDS011;30529;53.570;9.964;2023-06-05T13:36:32;4.50;;;1.93;;
44816;SDS011;30529;53.570;9.964;2023-06-05T13:38:59;5.97;;;2.00;;
44816;SDS011;30529;53.570;9.964;2023-06-05T13:41:25;4.27;;;2.10;;
44816;SDS011;30529;53.570;9.964;2023-06-05T13:43:51;4.13;;;1.70;;
44816;SDS011;30529;53.570;9.964;2023-06-05T13:46:17;2.43;;;1.97;;
44816;SDS011;30529;53.570;9.964;2023-06-05T13:48:44;4.40;;;1.87;;
44816;SDS011;30529;53.570;9.964;2023-06-05T13:51:09;2.97;;;2.10;;
44816;SDS011;30529;53.570;9.964;2023-06-05T13:53:36;2.93;;;2.03;;
44816;SDS011;30529;53.570;9.964;2023-06-05T13:56:02;6.97;;;2.87;;
44816;SDS011;30529;53.570;9.964;2023-06-05T13:58:29;5.60;;;1.97;;
44816;SDS011;30529;53.570;9.964;2023-06-05T14:00:55;4.53;;;2.00;;
44816;SDS011;30529;53.570;9.964;2023-06-05T14:03:23;3.20;;;1.97;;
44816;SDS011;30529;53.570;9.964;2023-06-05T14:05:49;4.50;;;1.70;;
44816;SDS011;30529;53.570;9.964;2023-06-05T14:08:15;3.20;;;1.90;;
44816;SDS011;30529;53.570;9.964;2023-06-05T14:10:41;4.73;;;2.00;;
44816;SDS011;30529;53.570;9.964;2023-06-05T14:13:07;5.67;;;2.10;;
44816;SDS011;30529;53.570;9.964;2023-06-05T14:15:34;3.30;;;2.03;;
44816;SDS011;30529;53.570;9.964;2023-06-05T14:18:01;3.47;;;2.13;;
44816;SDS011;30529;53.570;9.964;2023-06-05T14:20:28;3.33;;;1.83;;
44816;SDS011;30529;53.570;9.964;2023-06-05T14:22:57;4.97;;;2.20;;
44816;SDS011;30529;53.570;9.964;2023-06-05T14:25:24;4.40;;;2.47;;
44816;SDS011;30529;53.570;9.964;2023-06-05T14:27:54;4.00;;;1.90;;
44816;SDS011;30529;53.570;9.964;2023-06-05T14:30:21;4.43;;;2.50;;
44816;SDS011;30529;53.570;9.964;2023-06-05T14:32:48;5.90;;;2.03;;
44816;SDS011;30529;53.570;9.964;2023-06-05T14:35:14;3.53;;;2.20;;
44816;SDS011;30529;53.570;9.964;2023-06-05T14:37:42;5.70;;;2.20;;
44816;SDS011;30529;53.570;9.964;2023-06-05T14:40:08;3.20;;;1.93;;
44816;SDS011;30529;53.570;9.964;2023-06-05T14:42:34;3.63;;;2.20;;
44816;SDS011;30529;53.570;9.964;2023-06-05T14:45:01;4.27;;;2.63;;
44816;SDS011;30529;53.570;9.964;2023-06-05T14:47:27;17.93;;;2.90;;
44816;SDS011;30529;53.570;9.964;2023-06-05T14:49:53;6.80;;;2.57;;
44816;SDS011;30529;53.570;9.964;2023-06-05T14:52:19;2.43;;;1.70;;
44816;SDS011;30529;53.570;9.964;2023-06-05T14:54:45;5.37;;;2.17;;
44816;SDS011;30529;53.570;9.964;2023-06-05T14:57:11;4.10;;;1.90;;
44816;SDS011;30529;53.570;9.964;2023-06-05T14:59:37;2.90;;;2.00;;
44816;SDS011;30529;53.570;9.964;2023-06-05T15:02:03;3.67;;;1.47;;
44816;SDS011;30529;53.570;9.964;2023-06-05T15:04:29;4.07;;;1.80;;
44816;SDS011;30529;53.570;9.964;2023-06-05T15:06:56;6.33;;;2.00;;
44816;SDS011;30529;53.570;9.964;2023-06-05T15:09:22;5.97;;;2.17;;
44816;SDS011;30529;53.570;9.964;2023-06-05T15:11:48;3.40;;;1.97;;
44816;SDS011;30529;53.570;9.964;2023-06-05T15:14:16;2.40;;;1.80;;
44816;SDS011;30529;53.570;9.964;2023-06-05T15:16:42;4.40;;;1.83;;
44816;SDS011;30529;53.570;9.964;2023-06-05T15:19:08;2.20;;;1.70;;